Medina, WA (98039)

1:22 PM PST on February 10, 2016 (GMT -0800)
Medina | | Change Station
CLOSE
Current Station
Personal Weather Station
Location: Medina, WA
Elevation: 59 ft
Nearby Weather Stations

Elev 59 ft 47.62 °N, 122.23 °W | Updated 58 seconds ago

Overcast
Overcast
52.3 °F
Feels Like 52.3 °F
N
0.0
Wind Variable Wind from SE
Gusts 1.0 mph

Today
High -- | Low -- °F
--% Chance of Precip.
Yesterday
High -- | Low -- °F
Precip. -- in
Pressure 30.25 in
Visibility 10.0 miles
Clouds Overcast 4300 ft
Dew Point 51 °F
Humidity 95%
Rainfall 0.15 in
Snow Depth Not available.
7:23 AM 5:23 PM
Waxing Crescent, 7% visible
METAR KBFI 102053Z 15009KT 10SM OVC043 12/11 A3025 RMK AO2 RAE42 SLP244 P0001 60014 T01170111 51026
Pressure 30.25 in
Visibility 10.0 miles
Clouds Overcast 4300 ft
Dew Point 51 °F
Humidity 95%
Rainfall 0.15 in
Snow Depth Not available.
7:23 AM 5:23 PM
Waxing Crescent, 7% visible
METAR KBFI 102053Z 15009KT 10SM OVC043 12/11 A3025 RMK AO2 RAE42 SLP244 P0001 60014 T01170111 51026

10-Day Weather Forecast

Almanac

Astronomy

Feb. 10, 2016 Rise Set
Actual Time
Civil Twilight
Nautical Twilight
Astronomical Twilight
Moon
Length of Visible Light
Length of Day
Tomorrow will be .
, % of the Moon is Illuminated

Today's Extremes

State Highs State Lows

Community

WunderPhotos

Upload Photos

1,891,949 photos uploaded!

WunderBlog® & News

Nearby

Air Quality

  Air Quality AQ Index Pollutant
Not available.

Snow Depth

Station Depth Elevation

Earthquake Activity

City Distance Mag. Time & Date
Minimum magnitude displayed is 2.5.

Coastal Water Temperatures

Place Temperature

Stations

Nearby Weather Stations

Station Location Temp. Windchill Dew Point Humidity Wind Precip. Elev Updated Type
                   

Watches & Warnings

There are currently no watches in effect.